createdAt,value
2023-04-02T00:04:39.094Z,99651.63
2023-04-02T00:09:36.368Z,99633.00
2023-04-02T00:14:50.595Z,99639.28
2023-04-02T00:20:00.397Z,99668.94
2023-04-02T00:24:55.960Z,99655.09
2023-04-02T00:30:13.160Z,99679.78
2023-04-02T00:35:13.913Z,99682.56
2023-04-02T00:40:17.807Z,99649.16
2023-04-02T00:45:33.868Z,99687.06
2023-04-02T00:50:41.765Z,99657.31
2023-04-02T00:55:41.653Z,99680.88
2023-04-02T01:00:37.717Z,99677.97
2023-04-02T01:05:35.737Z,99659.56
2023-04-02T01:10:31.877Z,99663.84
2023-04-02T01:15:49.465Z,99641.94
2023-04-02T01:21:08.179Z,99655.16
2023-04-02T01:26:13.775Z,99658.63
2023-04-02T01:31:07.969Z,99626.91
2023-04-02T01:36:12.512Z,99680.88
2023-04-02T01:41:18.637Z,99667.81
2023-04-02T01:46:32.965Z,99659.09
2023-04-02T01:51:54.008Z,99687.56
2023-04-02T01:56:48.502Z,99658.94
2023-04-02T02:02:03.021Z,99702.81
2023-04-02T02:07:00.876Z,99713.69
2023-04-02T02:11:55.065Z,99732.56
2023-04-02T02:16:49.371Z,99706.75
2023-04-02T02:21:45.248Z,99726.53
2023-04-02T02:26:39.944Z,99734.97
2023-04-02T02:31:35.515Z,99724.25
2023-04-02T02:36:38.632Z,99753.44
2023-04-02T02:41:40.630Z,99714.31
2023-04-02T02:46:36.024Z,99758.16
2023-04-02T02:52:00.185Z,99736.84
2023-04-02T02:57:09.385Z,99731.78
2023-04-02T03:02:03.878Z,99748.66
2023-04-02T03:06:59.344Z,99777.34
2023-04-02T03:11:52.751Z,99781.56
2023-04-02T03:16:55.122Z,99801.03
2023-04-02T03:22:05.694Z,99779.97
2023-04-02T03:27:19.476Z,99818.66
2023-04-02T03:32:24.565Z,99810.44
2023-04-02T03:37:23.958Z,99802.00
2023-04-02T03:42:22.662Z,99831.56
2023-04-02T03:47:25.090Z,99836.66
2023-04-02T03:52:27.386Z,99821.81
2023-04-02T03:57:25.543Z,99847.28
2023-04-02T04:02:44.519Z,99845.00
2023-04-02T04:07:41.919Z,99819.16
2023-04-02T04:12:42.688Z,99847.03
2023-04-02T04:18:20.043Z,99866.56
2023-04-02T04:23:37.090Z,99877.22
2023-04-02T04:28:56.795Z,99884.22
2023-04-02T04:33:55.790Z,99876.28
2023-04-02T04:38:55.768Z,99897.66
2023-04-02T04:43:54.923Z,99884.25
2023-04-02T04:48:53.939Z,99923.13
2023-04-02T04:53:51.415Z,99899.13
2023-04-02T04:58:53.066Z,99878.13
2023-04-02T05:04:03.270Z,99865.00
2023-04-02T05:09:04.126Z,99907.31
2023-04-02T05:14:27.909Z,99898.38
2023-04-02T05:19:49.494Z,99902.00
2023-04-02T05:24:55.570Z,99916.13
2023-04-02T05:30:01.091Z,99923.28
2023-04-02T05:34:57.926Z,99937.41
2023-04-02T05:39:58.093Z,99947.81
2023-04-02T05:45:18.269Z,99949.31
2023-04-02T05:50:33.811Z,99960.31
2023-04-02T05:56:18.416Z,99963.19
2023-04-02T06:01:42.519Z,99953.94
2023-04-02T06:06:55.284Z,99990.03
2023-04-02T06:11:54.521Z,99975.19
2023-04-02T06:16:47.936Z,100004.91
2023-04-02T06:21:50.044Z,100001.88
2023-04-02T06:26:55.210Z,100022.50
2023-04-02T06:31:52.313Z,100010.09
2023-04-02T06:36:49.105Z,99994.25
2023-04-02T06:41:43.012Z,100057.69
2023-04-02T06:47:08.452Z,100033.13
2023-04-02T06:52:04.095Z,100044.22
2023-04-02T06:56:57.760Z,100036.97
2023-04-02T07:02:32.417Z,100076.75
2023-04-02T07:07:27.400Z,100068.75
2023-04-02T07:12:25.048Z,100100.06
2023-04-02T07:17:23.768Z,100080.22
2023-04-02T07:22:19.970Z,100090.00
2023-04-02T07:27:18.893Z,100115.03
2023-04-02T07:32:14.201Z,100079.25
2023-04-02T07:37:07.773Z,100127.50
2023-04-02T07:42:02.607Z,100132.47
2023-04-02T07:46:55.990Z,100144.66
2023-04-02T07:51:54.118Z,100144.28
2023-04-02T07:56:47.770Z,100136.19
2023-04-02T08:01:40.665Z,100133.97
2023-04-02T08:06:33.787Z,100189.47
2023-04-02T08:11:29.663Z,100196.72
2023-04-02T08:16:26.328Z,100184.38
2023-04-02T08:21:19.921Z,100191.16
2023-04-02T08:26:18.568Z,100197.03
2023-04-02T08:31:11.785Z,100221.38
2023-04-02T08:36:07.097Z,100195.28
2023-04-02T08:41:03.385Z,100239.97
2023-04-02T08:46:12.848Z,100246.75
2023-04-02T08:51:07.595Z,100217.25
2023-04-02T08:56:20.029Z,100239.63
2023-04-02T09:01:28.164Z,100242.88
2023-04-02T09:06:22.688Z,100258.97
2023-04-02T09:11:44.949Z,100246.50
2023-04-02T09:16:41.711Z,100242.84
2023-04-02T09:21:39.183Z,100258.72
2023-04-02T09:26:33.999Z,100261.13
2023-04-02T09:31:56.774Z,100261.25
2023-04-02T09:36:50.769Z,100249.25
2023-04-02T09:41:48.211Z,100265.72
2023-04-02T09:46:57.080Z,100262.31
2023-04-02T09:52:21.082Z,100270.41
2023-04-02T09:57:27.514Z,100285.63
2023-04-02T10:02:30.927Z,100252.09
2023-04-02T10:07:46.554Z,100276.06
2023-04-02T10:12:43.659Z,100288.00
2023-04-02T10:17:38.748Z,100263.47
2023-04-02T10:22:33.176Z,100297.69
2023-04-02T10:27:39.857Z,100267.06
2023-04-02T10:32:43.345Z,100292.88
2023-04-02T10:37:59.799Z,100275.91
2023-04-02T10:42:59.061Z,100274.50
2023-04-02T10:48:23.206Z,100270.47
2023-04-02T10:53:19.767Z,100236.28
2023-04-02T10:58:23.088Z,100250.09
2023-04-02T11:03:40.121Z,100231.75
2023-04-02T11:08:46.151Z,100219.31
2023-04-02T11:14:02.968Z,100224.38
2023-04-02T11:19:15.203Z,100218.47
2023-04-02T11:24:23.683Z,100221.13
2023-04-02T11:29:32.110Z,100215.88
2023-04-02T11:35:07.227Z,100224.50
2023-04-02T11:40:04.129Z,100190.81
2023-04-02T11:45:01.087Z,100198.94
2023-04-02T11:50:02.389Z,100223.00
2023-04-02T11:55:17.549Z,100200.16
2023-04-02T12:00:33.409Z,100213.56
2023-04-02T12:05:55.257Z,100214.56
2023-04-02T12:11:01.702Z,100214.22
2023-04-02T12:15:59.332Z,100188.56
2023-04-02T12:20:57.974Z,100190.69
2023-04-02T12:26:00.752Z,100191.78
2023-04-02T12:31:09.607Z,100203.75
2023-04-02T12:36:03.166Z,100182.47
2023-04-02T12:41:02.374Z,100213.28
2023-04-02T12:45:58.521Z,100213.53
2023-04-02T12:50:52.384Z,100221.94
2023-04-02T12:55:49.662Z,100180.97
2023-04-02T13:00:42.879Z,100239.56
2023-04-02T13:05:46.692Z,100200.97
2023-04-02T13:10:39.829Z,100230.03
2023-04-02T13:15:35.446Z,100223.25
2023-04-02T13:20:39.995Z,100205.22
2023-04-02T13:25:37.410Z,100221.94
2023-04-02T13:30:32.270Z,100198.84
2023-04-02T13:35:27.540Z,100212.28
2023-04-02T13:40:19.979Z,100174.09
2023-04-02T13:45:19.203Z,100205.25
2023-04-02T13:50:18.259Z,100187.81
2023-04-02T13:55:11.784Z,100193.75
2023-04-02T14:00:07.202Z,100210.81
2023-04-02T14:05:12.366Z,100226.81
2023-04-02T14:10:07.607Z,100229.22
2023-04-02T14:15:25.307Z,100240.56
2023-04-02T14:20:21.080Z,100236.94
2023-04-02T14:25:58.511Z,100235.59
2023-04-02T14:31:07.566Z,100238.91
2023-04-02T14:36:28.189Z,100279.25
2023-04-02T14:41:53.583Z,100275.72
2023-04-02T14:46:48.060Z,100228.53
2023-04-02T14:51:52.226Z,100248.28
2023-04-02T14:57:16.998Z,100274.22
2023-04-02T15:02:15.285Z,100258.34
2023-04-02T15:07:18.451Z,100280.38
2023-04-02T15:12:27.477Z,100259.97
2023-04-02T15:17:22.217Z,100245.75
2023-04-02T15:22:30.912Z,100259.84
2023-04-02T15:27:27.882Z,100262.63
2023-04-02T15:32:33.154Z,100248.41
2023-04-02T15:37:33.083Z,100253.72
2023-04-02T15:42:31.480Z,100205.03
2023-04-02T15:47:56.635Z,100263.59
2023-04-02T15:52:58.252Z,100251.50
2023-04-02T15:58:14.008Z,100251.06
2023-04-02T16:03:17.576Z,100228.97
2023-04-02T16:08:22.841Z,100259.84
2023-04-02T16:13:20.104Z,100241.59
2023-04-02T16:18:30.755Z,100239.81
2023-04-02T16:23:33.039Z,100243.34
2023-04-02T16:28:33.973Z,100238.97
2023-04-02T16:34:06.725Z,100245.78
2023-04-02T16:39:09.176Z,100221.22
2023-04-02T16:44:24.694Z,100212.03
2023-04-02T16:49:26.147Z,100241.41
2023-04-02T16:54:40.441Z,100185.75
2023-04-02T16:59:39.854Z,100214.50
2023-04-02T17:04:46.963Z,100204.59
2023-04-02T17:09:47.235Z,100167.34
2023-04-02T17:14:53.095Z,100209.66
2023-04-02T17:19:49.143Z,100196.47
2023-04-02T17:24:46.600Z,100233.34
2023-04-02T17:29:42.656Z,100230.53
2023-04-02T17:34:36.646Z,100251.78
2023-04-02T17:39:43.154Z,100246.88
2023-04-02T17:44:45.346Z,100263.38
2023-04-02T17:49:46.686Z,100259.41
2023-04-02T17:55:13.300Z,100280.44
2023-04-02T18:00:06.366Z,100277.91
2023-04-02T18:05:13.679Z,100293.88
2023-04-02T18:10:25.014Z,100299.19
2023-04-02T18:16:03.322Z,100297.66
2023-04-02T18:21:21.132Z,100307.19
2023-04-02T18:26:42.331Z,100323.13
2023-04-02T18:31:50.226Z,100334.00
2023-04-02T18:37:13.538Z,100329.44
2023-04-02T18:42:19.437Z,100314.16
2023-04-02T18:47:15.217Z,100343.97
2023-04-02T18:52:15.423Z,100332.19
2023-04-02T18:57:22.712Z,100328.44
2023-04-02T19:02:37.608Z,100320.53
2023-04-02T19:07:34.141Z,100358.19
2023-04-02T19:12:28.235Z,100352.75
2023-04-02T19:17:47.461Z,100374.88
2023-04-02T19:22:50.388Z,100373.19
2023-04-02T19:28:12.957Z,100372.44
2023-04-02T19:33:35.798Z,100382.31
2023-04-02T19:39:03.287Z,100394.16
2023-04-02T19:43:57.693Z,100383.03
2023-04-02T19:49:01.348Z,100405.59
2023-04-02T19:53:54.001Z,100393.75
2023-04-02T19:58:47.088Z,100409.63
2023-04-02T20:03:42.123Z,100395.19
2023-04-02T20:08:36.624Z,100401.38
2023-04-02T20:13:30.107Z,100400.16
2023-04-02T20:18:24.990Z,100419.50
2023-04-02T20:23:18.149Z,100432.56
2023-04-02T20:28:11.405Z,100416.66
2023-04-02T20:33:06.190Z,100417.25
2023-04-02T20:38:00.233Z,100439.88
2023-04-02T20:42:54.081Z,100445.09
2023-04-02T20:47:51.876Z,100434.56
2023-04-02T20:52:45.402Z,100441.97
2023-04-02T20:57:38.783Z,100449.13
2023-04-02T21:02:32.696Z,100444.22
2023-04-02T21:07:26.836Z,100463.03
2023-04-02T21:12:20.866Z,100479.69
2023-04-02T21:17:14.644Z,100476.19
2023-04-02T21:22:09.637Z,100478.63
2023-04-02T21:27:04.014Z,100475.84
2023-04-02T21:31:59.864Z,100490.22
2023-04-02T21:36:54.760Z,100497.88
2023-04-02T21:41:53.168Z,100454.44
2023-04-02T21:46:46.147Z,100449.94
2023-04-02T21:51:41.024Z,100477.09
2023-04-02T21:56:38.234Z,100476.94
2023-04-02T22:01:34.729Z,100492.84
2023-04-02T22:06:33.306Z,100501.16
2023-04-02T22:11:48.538Z,100467.25
2023-04-02T22:16:42.825Z,100491.34
2023-04-02T22:21:37.045Z,100482.41
2023-04-02T22:26:32.196Z,100452.41
2023-04-02T22:31:26.992Z,100449.75
2023-04-02T22:36:21.317Z,100452.41
2023-04-02T22:41:23.672Z,100459.28
2023-04-02T22:46:19.062Z,100438.81
2023-04-02T22:51:14.897Z,100466.47
2023-04-02T22:56:07.609Z,100470.00
2023-04-02T23:01:09.345Z,100415.13
2023-04-02T23:06:08.033Z,100415.94
2023-04-02T23:11:06.801Z,100440.91
2023-04-02T23:16:06.634Z,100437.41
2023-04-02T23:20:59.575Z,100449.28
2023-04-02T23:25:51.620Z,100449.28
2023-04-02T23:30:44.855Z,100434.41
2023-04-02T23:35:39.034Z,100413.91
2023-04-02T23:40:32.949Z,100405.22
2023-04-02T23:45:27.215Z,100436.44
2023-04-02T23:50:19.989Z,100422.28
2023-04-02T23:55:13.875Z,100425.06
